KDGW

Converse County Airport

Douglas, Wyoming, USA
METAR KDGW 100553Z AUTO 35006KT 10SM CLR M08/M13 A3026 RMK AO2 SLP290 T10831128 11022 21094 58009
Observed Flight Rules
Dec-10 @ 05:53 UTC (38 minutes ago) Visual Flight Rules
Wind Visibility Clouds
350° at 6 knots 10 miles
  • Clear skies
Temperatures Readings
Current -8°C / 18°F
Dewpoint -13°C / 9°F
Humidity 68%
Altimeter 30.26" Hg
Pressure 1029 hPa
Elevation 1499
METAR KDGW 100553Z AUTO 35006KT 10SM CLR M08/M13 A3026 RMK AO2 SLP290 T10831128 11022 21094 58009
Observed Flight Rules
Dec-10 @ 05:53 UTC
(38 minutes ago)
VFR
Wind Visibility
350° at 6 knots 10 miles
Clouds
  • Clear skies
Temperature Dewpoint
-8°C / 18°F -13°C / 9°F
Humidity Altimeter Pressure
68% 30.26" Hg 1029 hPa